Time;durP1;ratioP1;P1;durP2;ratioP2;P2;SDS_P1;SDS_P2;PMS_P1;PMS_P2;Temp;Humidity;BMP_temperature;BMP_pressure;BME280_temperature;BME280_humidity;BME280_pressure;Samples;Min_cycle;Max_cycle;Signal;HPM_P1;HPM_P2
2022/09/04 00:00:18;;;;;;;9.68;3.40;;;;;;;14.51;76.96;101731.49;1715039;83;25786;-62
2022/09/04 00:03:16;;;;;;;11.00;3.47;;;;;;;14.54;77.00;101734.41;1707770;83;25526;-63
2022/09/04 00:05:59;;;;;;;5.58;3.45;;;;;;;14.54;76.95;101734.41;1681472;85;27476;-62
2022/09/04 00:08:40;;;;;;;12.78;3.65;;;;;;;14.53;77.01;101740.31;1662120;85;25850;-62
2022/09/04 00:11:34;;;;;;;12.30;4.45;;;;;;;14.51;77.08;101745.51;1675303;85;25780;-62
2022/09/04 00:14:05;;;;;;;;;;;;;;;14.49;77.14;101745.66;1686239;85;25756;-63
2022/09/04 00:17:00;;;;;;;13.58;3.77;;;;;;;14.50;77.17;101746.50;1683582;85;26141;-63
2022/09/04 00:19:29;;;;;;;;;;;;;;;14.49;77.15;101746.14;1637977;85;27513;-63
2022/09/04 00:22:00;;;;;;;10.00;4.37;;;;;;;14.46;77.15;101751.84;1676850;84;25975;-63
2022/09/04 00:24:40;;;;;;;7.03;3.35;;;;;;;14.43;77.08;101748.05;1697514;83;25547;-63
2022/09/04 00:27:26;;;;;;;9.08;3.98;;;;;;;14.34;76.83;101756.00;1710314;83;26784;-63
2022/09/04 00:30:10;;;;;;;6.28;3.65;;;;;;;14.27;76.94;101756.20;1710107;83;25472;-63
2022/09/04 00:33:12;;;;;;;9.00;3.60;;;;;;;14.25;77.15;101751.41;1710486;83;27306;-63
2022/09/04 00:35:47;;;;;;;6.97;3.90;;;;;;;14.27;77.17;101753.97;1710017;83;25986;-64
2022/09/04 00:38:25;;;;;;;4.95;3.35;;;;;;;14.28;77.21;101755.69;1709644;83;25641;-63
2022/09/04 00:41:07;;;;;;;9.55;3.83;;;;;;;14.28;77.05;101757.91;1710192;83;25768;-62
2022/09/04 00:44:06;;;;;;;13.20;3.98;;;;;;;14.29;77.17;101756.05;1710018;83;25780;-62
2022/09/04 00:46:51;;;;;;;9.98;3.62;;;;;;;14.30;77.18;101756.41;1707991;83;27510;-62
2022/09/04 00:49:46;;;;;;;10.82;4.72;;;;;;;14.32;77.20;101756.63;1710133;83;25788;-63
2022/09/04 00:52:28;;;;;;;9.08;3.55;;;;;;;14.35;77.15;101760.91;1710098;82;25543;-63
2022/09/04 00:55:44;;;;;;;11.18;3.83;;;;;;;14.34;77.12;101762.77;1709716;83;25972;-63
2022/09/04 00:58:38;;;;;;;5.80;3.20;;;;;;;14.32;76.89;101765.27;1710350;83;25700;-63
2022/09/04 01:01:06;;;;;;;10.25;3.52;;;;;;;14.31;76.91;101764.39;1710140;83;27475;-62
2022/09/04 01:03:41;;;;;;;6.65;3.62;;;;;;;14.32;76.83;101768.81;1713136;83;25703;-62
2022/09/04 01:06:19;;;;;;;9.38;3.85;;;;;;;14.31;76.67;101767.61;1714503;83;25712;-62
2022/09/04 01:09:03;;;;;;;12.00;3.95;;;;;;;14.29;76.71;101765.05;1714807;83;25804;-63
2022/09/04 01:12:16;;;;;;;4.70;3.40;;;;;;;14.28;76.67;101763.80;1715030;83;26091;-62
2022/09/04 01:15:14;;;;;;;9.20;3.02;;;;;;;14.27;76.74;101768.38;1714894;83;25844;-62
2022/09/04 01:17:58;;;;;;;6.80;3.45;;;;;;;14.23;76.55;101769.15;1714611;83;25967;-63
2022/09/04 01:20:53;;;;;;;7.25;3.75;;;;;;;14.22;76.63;101768.78;1714933;83;25804;-64
2022/09/04 01:23:46;;;;;;;10.95;3.52;;;;;;;14.23;76.59;101762.86;1703480;83;25776;-63
2022/09/04 01:26:34;;;;;;;5.80;3.70;;;;;;;14.21;76.65;101758.95;1710763;83;25664;-62
2022/09/04 01:29:33;;;;;;;9.68;3.90;;;;;;;14.22;76.79;101763.84;1711172;83;27465;-62
2022/09/04 01:32:32;;;;;;;7.42;3.72;;;;;;;14.20;76.65;101757.73;1709545;83;26185;-62
2022/09/04 01:35:36;;;;;;;8.73;3.65;;;;;;;14.07;76.37;101757.45;1708627;84;25743;-63
2022/09/04 01:38:42;;;;;;;7.92;3.90;;;;;;;13.98;76.74;101762.33;1708683;83;26174;-62
2022/09/04 01:41:37;;;;;;;9.90;4.08;;;;;;;13.83;76.84;101763.16;1705507;84;25921;-63
2022/09/04 01:44:08;;;;;;;11.60;4.10;;;;;;;13.84;77.36;101764.04;1705711;82;28487;-63
2022/09/04 01:47:01;;;;;;;6.62;3.55;;;;;;;13.88;77.50;101764.98;1708821;83;25832;-63
2022/09/04 01:49:52;;;;;;;8.73;3.83;;;;;;;13.94;77.57;101767.62;1718389;83;25802;-63
2022/09/04 01:52:35;;;;;;;7.67;3.75;;;;;;;13.99;77.60;101776.22;1717428;83;25810;-63
2022/09/04 01:55:08;;;;;;;5.83;3.60;;;;;;;14.04;77.61;101771.25;1718319;83;25502;-63
2022/09/04 01:58:07;;;;;;;6.25;4.00;;;;;;;14.07;77.46;101776.40;1717927;83;27490;-63
2022/09/04 02:00:54;;;;;;;9.55;3.67;;;;;;;14.09;77.41;101778.48;1706786;82;25665;-63
2022/09/04 02:03:38;;;;;;;9.40;4.10;;;;;;;14.12;77.39;101769.23;1682362;84;25673;-63
2022/09/04 02:06:27;;;;;;;10.15;3.90;;;;;;;14.14;77.30;101771.79;1669721;85;25846;-63
2022/09/04 02:09:28;;;;;;;12.13;4.00;;;;;;;14.16;77.40;101771.16;1671689;85;25865;-63
2022/09/04 02:12:34;;;;;;;13.80;3.95;;;;;;;14.15;77.19;101762.69;1671574;85;28226;-63
2022/09/04 02:15:29;;;;;;;10.82;3.83;;;;;;;14.16;77.25;101766.63;1671536;85;25840;-63
2022/09/04 02:18:35;;;;;;;12.58;4.08;;;;;;;14.18;77.29;101762.42;1671652;85;25806;-62
2022/09/04 02:21:16;;;;;;;11.33;4.05;;;;;;;14.20;77.17;101755.87;1670808;85;25799;-62
2022/09/04 02:23:52;;;;;;;10.88;3.85;;;;;;;14.20;77.07;101753.68;1678338;83;25474;-62
2022/09/04 02:26:46;;;;;;;13.45;3.95;;;;;;;14.21;77.07;101758.95;1698558;84;27608;-62
2022/09/04 02:29:33;;;;;;;6.83;3.77;;;;;;;14.21;76.94;101760.30;1697781;84;25717;-62
2022/09/04 02:32:18;;;;;;;8.45;3.87;;;;;;;14.20;76.89;101762.64;1697619;83;25722;-62
2022/09/04 02:35:10;;;;;;;13.20;4.08;;;;;;;14.20;76.98;101758.58;1702675;82;25919;-62
2022/09/04 02:38:03;;;;;;;8.48;3.55;;;;;;;14.24;77.05;101749.69;1694808;83;25835;-62
2022/09/04 02:40:38;;;;;;;9.63;3.40;;;;;;;14.25;77.12;101756.31;1698058;83;27512;-62
2022/09/04 02:43:51;;;;;;;8.28;3.67;;;;;;;14.27;77.04;101749.43;1697683;83;25856;-63
2022/09/04 02:46:45;;;;;;;10.72;3.90;;;;;;;14.24;77.05;101749.69;1697674;83;25804;-65
2022/09/04 02:49:38;;;;;;;13.85;4.58;;;;;;;14.24;77.07;101761.39;1697687;84;26590;-62
2022/09/04 02:52:46;;;;;;;8.88;3.98;;;;;;;14.24;77.15;101756.45;1697799;83;25757;-62
2022/09/04 02:55:50;;;;;;;8.95;3.87;;;;;;;14.28;77.29;101759.75;1697855;84;28441;-61
2022/09/04 02:58:38;;;;;;;16.20;4.42;;;;;;;14.27;77.21;101754.84;1697700;83;25736;-63
2022/09/04 03:01:23;;;;;;;10.60;3.67;;;;;;;14.26;77.07;101757.19;1710158;82;25754;-63
2022/09/04 03:04:07;;;;;;;8.05;3.70;;;;;;;14.19;77.03;101758.73;1693045;83;25822;-62
2022/09/04 03:07:00;;;;;;;11.22;3.72;;;;;;;14.19;77.31;101758.22;1681332;85;26240;-63
2022/09/04 03:09:46;;;;;;;7.28;3.80;;;;;;;14.23;77.55;101762.37;1683734;85;27558;-62
2022/09/04 03:12:38;;;;;;;9.10;3.70;;;;;;;14.27;77.46;101761.61;1683853;85;25805;-62
2022/09/04 03:15:26;;;;;;;16.55;3.45;;;;;;;14.30;77.38;101759.96;1683762;84;25745;-62
2022/09/04 03:18:16;;;;;;;11.48;4.08;;;;;;;14.32;77.37;101768.81;1683444;85;25773;-62
2022/09/04 03:21:06;;;;;;;5.83;3.47;;;;;;;14.31;76.96;101767.09;1678605;85;25811;-62
2022/09/04 03:23:53;;;;;;;6.12;3.65;;;;;;;14.28;77.08;101760.62;1687020;83;27867;-61
2022/09/04 03:26:28;;;;;;;10.68;3.77;;;;;;;14.30;77.09;101764.02;1704860;82;25652;-63
2022/09/04 03:29:10;;;;;;;8.63;4.42;;;;;;;14.33;77.14;101760.21;1710135;83;25832;-63
2022/09/04 03:32:08;;;;;;;11.93;3.85;;;;;;;14.31;76.97;101762.19;1689819;83;25871;-62
2022/09/04 03:34:49;;;;;;;10.05;4.20;;;;;;;14.27;76.91;101763.44;1710148;83;25811;-63
2022/09/04 03:37:37;;;;;;;9.83;3.33;;;;;;;14.25;77.12;101765.78;1707601;83;27445;-63
2022/09/04 03:40:34;;;;;;;5.67;3.33;;;;;;;14.29;77.30;101768.23;1709499;83;25546;-62
2022/09/04 03:43:38;;;;;;;9.23;4.10;;;;;;;14.31;77.12;101767.61;1713219;83;25850;-62
2022/09/04 03:46:19;;;;;;;9.08;3.65;;;;;;;14.33;77.12;101774.59;1713341;83;25794;-62
2022/09/04 03:49:06;;;;;;;11.65;4.95;;;;;;;14.35;77.09;101779.85;1712979;83;25726;-63
2022/09/04 03:52:00;;;;;;;12.95;3.65;;;;;;;14.31;76.90;101777.08;1713410;83;27667;-63
2022/09/04 03:55:15;;;;;;;10.80;3.95;;;;;;;14.34;77.14;101780.88;1712902;83;25922;-63
2022/09/04 03:58:06;;;;;;;10.72;4.20;;;;;;;14.30;76.87;101780.27;1713033;83;25678;-63
2022/09/04 04:00:38;;;;;;;11.93;3.75;;;;;;;14.29;76.95;101791.23;1710702;83;25938;-63
2022/09/04 04:03:23;;;;;;;9.10;3.58;;;;;;;14.30;76.97;101796.50;1693210;84;25788;-63
2022/09/04 04:06:17;;;;;;;10.85;3.80;;;;;;;14.34;77.24;101798.47;1697419;84;26963;-63
2022/09/04 04:09:28;;;;;;;5.65;3.62;;;;;;;14.33;77.08;101803.01;1698716;84;25786;-63
2022/09/04 04:12:26;;;;;;;9.98;3.77;;;;;;;14.31;76.90;101798.22;1661546;84;25733;-63
2022/09/04 04:15:32;;;;;;;12.10;4.05;;;;;;;14.36;76.92;101797.81;1625065;84;25781;-64
2022/09/04 04:18:12;;;;;;;5.75;3.62;;;;;;;14.38;76.53;101816.14;1657491;85;25775;-64
2022/09/04 04:21:26;;;;;;;5.95;3.85;;;;;;;14.27;76.26;101814.39;1657343;86;27491;-63
2022/09/04 04:24:15;;;;;;;8.05;3.67;;;;;;;14.28;76.56;101818.81;1665566;85;26107;-63
2022/09/04 04:26:57;;;;;;;16.77;4.70;;;;;;;14.22;76.72;101823.39;1680417;84;25863;-64
2022/09/04 04:29:39;;;;;;;11.20;4.22;;;;;;;14.23;76.72;101823.27;1684970;85;26570;-63
2022/09/04 04:32:33;;;;;;;16.30;4.85;;;;;;;14.31;76.84;101828.50;1685697;85;26494;-63
2022/09/04 04:35:17;;;;;;;12.75;4.42;;;;;;;14.34;76.78;101830.44;1685912;84;27511;-63
2022/09/04 04:38:12;;;;;;;11.00;4.87;;;;;;;14.40;76.85;101832.59;1685328;84;26666;-63
2022/09/04 04:41:19;;;;;;;11.68;4.50;;;;;;;14.55;76.96;101826.84;1685792;84;25767;-64
2022/09/04 04:44:09;;;;;;;9.38;4.67;;;;;;;14.62;76.58;101819.87;1685643;83;25996;-63
2022/09/04 04:47:06;;;;;;;14.00;4.42;;;;;;;14.77;76.71;101823.58;1686013;85;25839;-62
2022/09/04 04:50:05;;;;;;;8.08;4.33;;;;;;;14.87;76.33;101825.81;1685694;84;27688;-63
2022/09/04 04:52:54;;;;;;;14.47;4.60;;;;;;;14.90;75.81;101825.55;1685700;84;25872;-63
2022/09/04 04:55:56;;;;;;;11.83;4.47;;;;;;;14.92;75.76;101823.56;1685858;85;25859;-63
2022/09/04 04:58:49;;;;;;;11.10;3.98;;;;;;;15.03;75.97;101829.36;1650097;86;25638;-63
2022/09/04 05:01:42;;;;;;;8.25;4.22;;;;;;;15.10;75.35;101835.08;1669599;84;26038;-63
2022/09/04 05:04:33;;;;;;;6.42;3.80;;;;;;;15.15;75.29;101836.34;1668596;84;27552;-62
2022/09/04 05:07:08;;;;;;;12.30;4.22;;;;;;;15.22;75.13;101839.36;1664087;84;26213;-62
2022/09/04 05:09:49;;;;;;;10.38;3.83;;;;;;;15.28;74.93;101849.66;1670368;85;26500;-62
2022/09/04 05:12:37;;;;;;;10.10;3.58;;;;;;;15.32;74.57;101847.01;1708917;83;26818;-63
2022/09/04 05:15:18;;;;;;;11.95;4.62;;;;;;;15.37;74.11;101858.78;1693440;84;25792;-63
2022/09/04 05:18:06;;;;;;;7.58;4.20;;;;;;;15.39;74.35;101855.44;1705546;84;27497;-64
2022/09/04 05:20:44;;;;;;;11.75;4.92;;;;;;;15.42;74.20;101851.59;1693472;84;25512;-64
2022/09/04 05:23:34;;;;;;;8.65;4.17;;;;;;;15.47;74.32;101853.36;1708860;83;25770;-64
2022/09/04 05:26:22;;;;;;;8.83;4.45;;;;;;;15.54;74.27;101855.88;1680005;85;26031;-63
2022/09/04 05:29:06;;;;;;;9.50;4.42;;;;;;;15.59;74.00;101858.17;1692576;83;25941;-64
2022/09/04 05:31:55;;;;;;;;;;;;;;;15.64;73.97;101858.06;1689043;84;27466;-64
2022/09/04 05:34:51;;;;;;;8.08;5.10;;;;;;;15.65;73.51;101851.65;1685760;85;25792;-63
2022/09/04 05:37:56;;;;;;;8.83;4.28;;;;;;;15.62;73.16;101853.80;1685944;85;26522;-63
2022/09/04 05:40:56;;;;;;;8.35;4.78;;;;;;;15.61;73.28;101850.23;1700147;83;26771;-62
2022/09/04 05:44:13;;;;;;;11.48;4.37;;;;;;;15.63;73.24;101855.52;1710308;82;25705;-63
2022/09/04 05:46:51;;;;;;;15.20;6.33;;;;;;;15.65;73.29;101859.78;1710365;83;28281;-63
2022/09/04 05:49:35;;;;;;;9.23;5.33;;;;;;;15.72;73.46;101864.15;1710260;83;25460;-63
2022/09/04 05:52:10;;;;;;;7.53;3.90;;;;;;;15.80;73.37;101866.16;1710080;83;25725;-63
2022/09/04 05:55:16;;;;;;;10.53;4.67;;;;;;;15.85;73.37;101870.67;1710083;83;25853;-63
2022/09/04 05:58:00;;;;;;;6.60;4.37;;;;;;;15.94;73.08;101877.10;1710401;82;25470;-63
2022/09/04 06:00:33;;;;;;;8.25;4.67;;;;;;;15.98;72.60;101874.44;1710231;82;27652;-64
2022/09/04 06:03:40;;;;;;;11.50;4.73;;;;;;;16.06;72.47;101875.08;1694489;83;25977;-63
2022/09/04 06:06:52;;;;;;;12.37;4.53;;;;;;;16.09;72.12;101874.80;1682366;85;25467;-64
2022/09/04 06:09:30;;;;;;;6.25;3.90;;;;;;;16.17;72.15;101882.19;1683299;85;25749;-64
2022/09/04 06:12:32;;;;;;;6.05;3.80;;;;;;;16.29;72.33;101878.31;1683139;85;25803;-63
2022/09/04 06:15:16;;;;;;;5.00;3.77;;;;;;;16.42;71.97;101886.14;1683164;84;27444;-63
2022/09/04 06:18:06;;;;;;;6.53;4.00;;;;;;;16.51;71.49;101885.26;1683539;84;25706;-63
2022/09/04 06:20:48;;;;;;;8.05;3.83;;;;;;;16.63;70.84;101891.36;1683105;85;25454;-63
2022/09/04 06:23:26;;;;;;;10.43;4.47;;;;;;;16.72;69.82;101891.82;1672800;84;26573;-62
2022/09/04 06:26:35;;;;;;;5.15;3.50;;;;;;;16.78;68.90;101895.80;1702968;83;25675;-63
2022/09/04 06:29:41;;;;;;;6.35;3.40;;;;;;;16.84;67.20;101891.12;1702463;84;27375;-63
2022/09/04 06:32:25;;;;;;;10.40;4.67;;;;;;;16.86;67.21;101885.52;1702295;83;26143;-63
2022/09/04 06:35:16;;;;;;;9.28;3.92;;;;;;;16.93;67.65;101890.77;1702094;84;25815;-63
2022/09/04 06:38:14;;;;;;;5.70;3.72;;;;;;;17.04;67.69;101889.70;1702424;84;26163;-63
2022/09/04 06:41:28;;;;;;;7.97;3.45;;;;;;;17.13;67.32;101890.15;1681598;83;25952;-64
2022/09/04 06:44:13;;;;;;;11.70;3.80;;;;;;;17.17;66.82;101884.73;1675822;85;27499;-63
2022/09/04 06:46:57;;;;;;;9.43;3.92;;;;;;;17.26;66.37;101885.70;1653889;85;25867;-64
2022/09/04 06:49:54;;;;;;;12.33;3.62;;;;;;;17.34;66.35;101889.87;1674899;85;25924;-64
2022/09/04 06:52:26;;;;;;;7.17;3.37;;;;;;;17.51;66.15;101884.10;1675554;84;26045;-64
2022/09/04 06:55:06;;;;;;;7.97;4.22;;;;;;;17.64;64.41;101884.20;1645026;85;25723;-64
2022/09/04 06:57:57;;;;;;;7.58;3.60;;;;;;;17.72;62.67;101888.36;1644705;85;27503;-62
2022/09/04 07:00:29;;;;;;;8.90;3.77;;;;;;;17.84;63.08;101888.97;1643896;87;25746;-63
2022/09/04 07:03:23;;;;;;;5.05;3.05;;;;;;;18.01;63.05;101890.00;1690588;82;25962;-62
2022/09/04 07:06:10;;;;;;;4.08;2.33;;;;;;;18.20;59.86;101886.73;1692772;84;25817;-62
2022/09/04 07:09:13;;;;;;;9.35;2.20;;;;;;;18.25;55.79;101883.89;1693512;83;25610;-62
2022/09/04 07:12:05;;;;;;;7.92;2.25;;;;;;;18.38;53.44;101878.01;1692998;84;27479;-63
2022/09/04 07:14:49;;;;;;;4.67;2.25;;;;;;;18.53;52.67;101894.62;1692924;84;25752;-63
2022/09/04 07:17:39;;;;;;;5.95;2.25;;;;;;;18.66;53.77;101891.94;1690543;84;25751;-63
2022/09/04 07:20:21;;;;;;;7.22;2.85;;;;;;;18.80;53.18;101888.63;1693138;84;26021;-64
2022/09/04 07:23:18;;;;;;;2.67;1.80;;;;;;;18.90;51.41;101900.75;1677180;83;25833;-64
2022/09/04 07:26:11;;;;;;;6.15;1.55;;;;;;;18.97;52.04;101902.35;1707196;82;27430;-64
2022/09/04 07:28:47;;;;;;;;;;;;;;;19.10;49.23;101894.55;1709850;84;25744;-64
2022/09/04 07:31:32;;;;;;;8.85;2.30;;;;;;;19.19;49.45;101898.17;1706550;83;25815;-63
2022/09/04 07:34:20;;;;;;;2.75;2.10;;;;;;;19.30;49.95;101902.45;1706978;82;25947;-63
2022/09/04 07:37:25;;;;;;;6.87;2.27;;;;;;;19.45;50.24;101905.39;1707182;83;25893;-65
2022/09/04 07:40:18;;;;;;;9.85;2.40;;;;;;;19.64;50.88;101906.95;1704680;83;27490;-64
2022/09/04 07:43:20;;;;;;;10.03;2.58;;;;;;;19.87;50.24;101903.08;1701328;84;26154;-65
2022/09/04 07:46:04;;;;;;;9.65;2.33;;;;;;;20.04;47.34;101908.03;1701160;83;25811;-64
2022/09/04 07:48:45;;;;;;;12.80;2.90;;;;;;;20.13;48.07;101910.23;1687965;84;25890;-64
2022/09/04 07:51:29;;;;;;;5.12;2.27;;;;;;;20.18;47.07;101909.22;1700799;83;25764;-63
2022/09/04 07:54:28;;;;;;;2.58;1.98;;;;;;;20.30;48.48;101906.98;1711426;83;27489;-63
2022/09/04 07:57:15;;;;;;;3.55;2.17;;;;;;;20.44;49.25;101914.46;1713867;83;25871;-64
2022/09/04 07:59:53;;;;;;;11.83;3.10;;;;;;;20.62;49.07;101912.89;1714201;83;26470;-64
2022/09/04 08:02:37;;;;;;;4.08;2.45;;;;;;;20.73;47.10;101910.82;1708321;83;25838;-63
2022/09/04 08:05:22;;;;;;;7.53;2.95;;;;;;;20.69;47.42;101913.06;1678495;84;25739;-65
2022/09/04 08:08:28;;;;;;;10.32;2.95;;;;;;;20.77;48.15;101919.02;1712761;83;27499;-65
2022/09/04 08:11:30;;;;;;;5.47;2.25;;;;;;;20.95;47.30;101916.07;1698345;82;26114;-64
2022/09/04 08:14:08;;;;;;;6.42;2.00;;;;;;;21.00;46.53;101917.74;1712483;83;25785;-64
2022/09/04 08:17:24;;;;;;;12.93;2.12;;;;;;;21.11;46.00;101916.52;1699917;84;25734;-64
2022/09/04 08:20:22;;;;;;;6.55;1.90;;;;;;;21.15;43.17;101915.11;1712737;83;25818;-64
2022/09/04 08:23:16;;;;;;;5.92;2.20;;;;;;;21.04;44.51;101912.77;1700012;82;27491;-65
2022/09/04 08:26:13;;;;;;;10.75;2.17;;;;;;;21.22;45.87;101916.09;1695566;83;25831;-64
2022/09/04 08:29:01;;;;;;;6.75;2.17;;;;;;;21.45;44.85;101921.27;1694731;84;25711;-64
2022/09/04 08:31:40;;;;;;;8.10;2.62;;;;;;;21.60;42.83;101915.91;1695279;84;25834;-64
2022/09/04 08:34:59;;;;;;;3.08;1.55;;;;;;;21.75;40.85;101917.35;1689583;84;25879;-65
2022/09/04 08:37:54;;;;;;;4.20;1.80;;;;;;;21.74;37.80;101917.85;1695420;83;27339;-65
2022/09/04 08:41:08;;;;;;;10.85;1.82;;;;;;;21.76;40.55;101919.06;1711847;83;25750;-65
2022/09/04 08:43:53;;;;;;;10.35;3.02;;;;;;;21.87;39.58;101914.00;1722175;83;25861;-65
2022/09/04 08:46:47;;;;;;;5.40;2.15;;;;;;;22.08;40.79;101914.33;1722392;81;25791;-64
2022/09/04 08:50:07;;;;;;;5.15;1.72;;;;;;;22.29;39.52;101912.25;1722324;83;26096;-64
2022/09/04 08:53:07;;;;;;;5.90;2.00;;;;;;;22.51;40.67;101905.89;1722380;83;27541;-64
2022/09/04 08:55:48;;;;;;;3.72;1.50;;;;;;;22.84;36.50;101899.18;1690016;84;25894;-64
2022/09/04 08:59:00;;;;;;;4.70;1.65;;;;;;;22.71;35.13;101901.22;1690797;84;25758;-64
2022/09/04 09:02:08;;;;;;;4.05;1.57;;;;;;;22.67;37.53;101905.38;1691309;84;26427;-64
2022/09/04 09:05:11;;;;;;;10.13;2.27;;;;;;;22.91;37.58;101893.75;1662665;84;25753;-64
2022/09/04 09:08:06;;;;;;;2.55;1.75;;;;;;;23.14;35.45;101892.25;1682964;83;27494;-64
2022/09/04 09:10:50;;;;;;;2.85;1.70;;;;;;;23.26;36.25;101894.03;1675373;85;25747;-63
2022/09/04 09:13:59;;;;;;;3.27;1.67;;;;;;;23.39;37.87;101887.30;1682668;85;25796;-64
2022/09/04 09:17:04;;;;;;;7.85;1.60;;;;;;;23.57;38.11;101888.24;1675461;85;25821;-63
2022/09/04 09:19:39;;;;;;;7.45;1.87;;;;;;;23.79;36.90;101884.64;1674409;85;25866;-64
2022/09/04 09:22:30;;;;;;;6.28;2.40;;;;;;;23.81;34.87;101880.64;1676975;85;27513;-64
2022/09/04 09:25:21;;;;;;;5.47;1.82;;;;;;;23.73;34.29;101882.98;1686214;84;25724;-65
2022/09/04 09:28:30;;;;;;;10.05;2.12;;;;;;;23.81;35.49;101877.89;1694640;84;25503;-65
2022/09/04 09:31:04;;;;;;;7.17;2.30;;;;;;;24.06;32.09;101875.61;1693852;84;25931;-64
2022/09/04 09:34:19;;;;;;;3.83;2.05;;;;;;;24.07;31.81;101873.16;1691258;84;25754;-64
2022/09/04 09:37:18;;;;;;;10.60;3.00;;;;;;;24.21;31.89;101876.02;1658846;85;27738;-64
2022/09/04 09:40:10;;;;;;;11.30;2.58;;;;;;;24.62;33.12;101874.37;1665931;84;25730;-64
2022/09/04 09:43:30;;;;;;;6.70;3.12;;;;;;;24.95;31.11;101871.81;1664191;84;25765;-64
2022/09/04 09:46:20;;;;;;;5.28;1.82;;;;;;;25.10;30.88;101873.55;1658777;86;25862;-64
2022/09/04 09:49:02;;;;;;;12.95;1.98;;;;;;;25.39;31.53;101867.39;1658695;86;25725;-64
2022/09/04 09:51:56;;;;;;;5.65;2.08;;;;;;;25.84;31.37;101873.20;1658417;85;27761;-64
2022/09/04 09:54:26;;;;;;;;;;;;;;;26.34;31.01;101869.14;1660235;85;25742;-64
2022/09/04 09:57:07;;;;;;;6.78;2.10;;;;;;;27.09;30.79;101871.98;1659664;85;25786;-65
2022/09/04 10:00:04;;;;;;;4.80;2.15;;;;;;;27.82;28.70;101867.08;1659007;85;26706;-65
2022/09/04 10:02:56;;;;;;;6.95;3.10;;;;;;;28.08;27.62;101866.88;1661831;85;25797;-65
2022/09/04 10:05:47;;;;;;;6.65;2.10;;;;;;;28.13;27.99;101869.48;1677154;84;27609;-65
2022/09/04 10:08:57;;;;;;;8.68;2.40;;;;;;;28.49;28.22;101866.45;1675034;85;25906;-65
2022/09/04 10:11:44;;;;;;;5.78;2.08;;;;;;;29.22;28.55;101861.94;1676066;85;25776;-65
2022/09/04 10:14:41;;;;;;;10.23;2.27;;;;;;;29.83;27.87;101854.92;1675618;85;26454;-65
2022/09/04 10:17:48;;;;;;;6.35;1.98;;;;;;;30.27;26.27;101861.55;1675790;85;25785;-65
2022/09/04 10:20:54;;;;;;;9.03;2.80;;;;;;;30.79;25.96;101861.29;1675793;85;27625;-65
2022/09/04 10:23:52;;;;;;;6.58;2.45;;;;;;;31.03;25.10;101850.38;1677129;84;25937;-64
2022/09/04 10:26:34;;;;;;;6.30;2.50;;;;;;;30.80;25.33;101855.48;1702393;83;25792;-65
2022/09/04 10:29:47;;;;;;;11.93;2.85;;;;;;;30.81;24.43;101853.56;1701939;83;25933;-65
2022/09/04 10:32:50;;;;;;;6.45;3.42;;;;;;;30.55;23.86;101859.41;1702432;84;25757;-64
2022/09/04 10:35:27;;;;;;;6.22;2.20;;;;;;;30.42;23.06;101861.05;1701852;84;27708;-64
2022/09/04 10:38:17;;;;;;;5.85;2.55;;;;;;;30.23;23.69;101858.94;1702341;84;25720;-66
2022/09/04 10:41:08;;;;;;;7.67;2.30;;;;;;;30.32;24.31;101856.66;1694677;84;25698;-65
2022/09/04 10:44:05;;;;;;;6.92;2.98;;;;;;;30.44;23.34;101849.14;1648133;87;25848;-65
2022/09/04 10:47:17;;;;;;;3.40;2.10;;;;;;;30.13;23.88;101847.91;1648123;86;25517;-65
2022/09/04 10:49:58;;;;;;;7.60;2.60;;;;;;;30.41;24.74;101846.87;1648118;86;27637;-65
2022/09/04 10:53:11;;;;;;;4.67;2.92;;;;;;;30.87;22.67;101844.23;1648204;85;25480;-65
2022/09/04 10:56:00;;;;;;;8.98;3.42;;;;;;;30.59;23.53;101844.49;1648402;87;32390;-65
2022/09/04 10:58:38;;;;;;;3.60;2.58;;;;;;;30.74;23.69;101840.67;1648362;85;25770;-64
2022/09/04 11:01:45;;;;;;;6.97;2.47;;;;;;;31.15;22.27;101842.05;1648293;85;25473;-64
2022/09/04 11:04:45;;;;;;;7.62;2.70;;;;;;;31.04;22.99;101838.74;1651362;86;27409;-65
2022/09/04 11:07:51;;;;;;;5.25;2.62;;;;;;;31.40;23.80;101841.34;1655565;85;25959;-64
2022/09/04 11:10:43;;;;;;;6.67;2.95;;;;;;;31.04;23.20;101835.96;1655612;86;25825;-64
2022/09/04 11:13:33;;;;;;;6.40;2.95;;;;;;;31.64;23.42;101830.92;1647741;86;25729;-64
2022/09/04 11:16:11;;;;;;;7.83;2.90;;;;;;;32.23;22.33;101832.45;1655739;86;25758;-65
2022/09/04 11:19:09;;;;;;;6.47;3.00;;;;;;;33.15;22.37;101822.11;1644315;86;27565;-65
2022/09/04 11:22:00;;;;;;;7.25;3.77;;;;;;;34.00;21.25;101814.48;1655468;86;25666;-65
2022/09/04 11:24:44;;;;;;;8.45;3.85;;;;;;;34.32;19.93;101816.34;1669913;84;25771;-65
2022/09/04 11:27:55;;;;;;;3.77;2.98;;;;;;;33.94;19.74;101822.55;1664933;85;25852;-65
2022/09/04 11:31:02;;;;;;;4.20;3.10;;;;;;;33.40;19.03;101822.38;1666431;85;25795;-64
2022/09/04 11:33:49;;;;;;;8.95;5.12;;;;;;;33.18;21.07;101811.84;1668008;84;27669;-65
2022/09/04 11:36:38;;;;;;;13.70;6.17;;;;;;;33.80;20.25;101813.77;1667970;84;25885;-64
2022/09/04 11:39:47;;;;;;;6.97;6.05;;;;;;;34.57;18.67;101812.83;1668892;84;25792;-65
2022/09/04 11:42:40;;;;;;;10.48;6.78;;;;;;;34.40;19.29;101813.59;1671854;85;25752;-65
2022/09/04 11:45:51;;;;;;;7.78;5.22;;;;;;;34.50;19.39;101813.64;1669453;85;25820;-65
2022/09/04 11:48:25;;;;;;;7.67;5.50;;;;;;;34.76;18.79;101817.38;1667209;86;27489;-65
2022/09/04 11:51:38;;;;;;;9.58;4.60;;;;;;;34.80;18.69;101808.70;1666658;86;25833;-65
2022/09/04 11:54:56;;;;;;;5.45;4.83;;;;;;;35.04;18.98;101805.98;1665861;86;25722;-64
2022/09/04 11:57:34;;;;;;;7.62;5.47;;;;;;;34.78;18.21;101806.77;1666097;86;25875;-65
2022/09/04 12:00:11;;;;;;;8.80;5.15;;;;;;;33.84;18.71;101803.19;1665898;86;25844;-65
2022/09/04 12:02:46;;;;;;;8.63;5.33;;;;;;;33.32;18.89;101794.98;1664300;86;27486;-64
2022/09/04 12:05:42;;;;;;;8.98;5.08;;;;;;;33.69;19.92;101799.73;1656418;86;25670;-66
2022/09/04 12:08:38;;;;;;;14.65;5.72;;;;;;;34.01;19.12;101801.67;1616397;86;25897;-65
2022/09/04 12:11:33;;;;;;;5.95;4.33;;;;;;;34.16;19.51;101803.67;1605033;87;25914;-66
2022/09/04 12:14:34;;;;;;;10.75;4.33;;;;;;;34.56;18.68;101802.75;1645933;86;25904;-64
2022/09/04 12:17:50;;;;;;;6.53;4.05;;;;;;;35.00;19.08;101808.50;1645873;87;27503;-65
2022/09/04 12:20:54;;;;;;;8.48;4.17;;;;;;;35.62;18.62;101809.13;1665003;85;25803;-65
2022/09/04 12:23:58;;;;;;;9.75;4.20;;;;;;;36.38;17.50;101796.63;1666113;84;25733;-65
2022/09/04 12:27:17;;;;;;;12.43;4.15;;;;;;;37.21;17.52;101795.02;1658963;85;25833;-66
2022/09/04 12:30:22;;;;;;;24.02;5.50;;;;;;;37.95;16.94;101795.52;1663875;85;25798;-65
2022/09/04 12:33:00;;;;;;;8.03;4.35;;;;;;;38.24;15.50;101797.39;1663064;85;26859;-65
2022/09/04 12:35:55;;;;;;;9.60;4.37;;;;;;;38.53;15.36;101789.46;1628098;85;25820;-65
2022/09/04 12:39:02;;;;;;;8.78;4.70;;;;;;;38.88;14.91;101781.66;1672524;85;25816;-65
2022/09/04 12:42:01;;;;;;;7.10;3.70;;;;;;;38.38;14.92;101784.88;1645654;87;25817;-65
2022/09/04 12:45:11;;;;;;;9.68;4.50;;;;;;;36.99;15.18;101781.45;1645871;86;25543;-66
2022/09/04 12:47:59;;;;;;;5.33;3.40;;;;;;;36.90;15.72;101772.83;1646088;87;27538;-67
2022/09/04 12:50:49;;;;;;;4.95;4.08;;;;;;;36.91;15.97;101784.88;1646059;87;27288;-67
2022/09/04 12:53:44;;;;;;;12.75;4.00;;;;;;;37.49;16.19;101780.52;1682536;85;25752;-65
2022/09/04 12:56:59;;;;;;;6.90;3.17;;;;;;;38.31;15.16;101778.22;1683527;85;25800;-66
2022/09/04 12:59:42;;;;;;;4.87;2.90;;;;;;;38.47;14.91;101783.66;1665247;86;25830;-66
2022/09/04 13:02:45;;;;;;;4.35;2.72;;;;;;;38.35;14.74;101772.86;1665643;85;28336;-64
2022/09/04 13:05:36;;;;;;;9.45;3.15;;;;;;;38.59;14.43;101778.44;1678656;84;25807;-66
2022/09/04 13:08:27;;;;;;;8.38;2.75;;;;;;;39.24;14.88;101774.62;1647651;86;25873;-66
2022/09/04 13:11:20;;;;;;;6.15;2.70;;;;;;;40.10;13.99;101766.84;1653359;86;25826;-65
2022/09/04 13:14:21;;;;;;;4.75;2.62;;;;;;;40.84;14.10;101772.26;1653062;86;26049;-65
2022/09/04 13:17:08;;;;;;;4.33;2.20;;;;;;;41.50;13.45;101774.33;1653226;86;28176;-65
2022/09/04 13:20:03;;;;;;;4.37;2.47;;;;;;;42.26;13.33;101777.56;1653223;86;25450;-65